sensor_id;sensor_type;location;lat;lon;timestamp;P1;durP1;ratioP1;P2;durP2;ratioP2
9392;SDS011;4736;52.508;13.422;2023-12-20T00:00:37;8.90;;;8.40;;
9392;SDS011;4736;52.508;13.422;2023-12-20T00:03:40;9.20;;;8.70;;
9392;SDS011;4736;52.508;13.422;2023-12-20T00:06:44;8.87;;;8.27;;
9392;SDS011;4736;52.508;13.422;2023-12-20T00:09:47;8.77;;;8.17;;
9392;SDS011;4736;52.508;13.422;2023-12-20T00:12:52;8.57;;;8.07;;
9392;SDS011;4736;52.508;13.422;2023-12-20T00:15:55;8.20;;;7.80;;
9392;SDS011;4736;52.508;13.422;2023-12-20T00:18:59;8.40;;;7.80;;
9392;SDS011;4736;52.508;13.422;2023-12-20T00:22:02;7.90;;;7.50;;
9392;SDS011;4736;52.508;13.422;2023-12-20T00:25:07;8.40;;;7.73;;
9392;SDS011;4736;52.508;13.422;2023-12-20T00:28:14;8.10;;;7.70;;
9392;SDS011;4736;52.508;13.422;2023-12-20T00:31:19;8.20;;;7.77;;
9392;SDS011;4736;52.508;13.422;2023-12-20T00:34:22;8.80;;;8.20;;
9392;SDS011;4736;52.508;13.422;2023-12-20T00:37:25;7.97;;;7.23;;
9392;SDS011;4736;52.508;13.422;2023-12-20T00:40:28;8.73;;;8.10;;
9392;SDS011;4736;52.508;13.422;2023-12-20T00:43:33;8.53;;;8.03;;
9392;SDS011;4736;52.508;13.422;2023-12-20T00:46:36;8.17;;;7.67;;
9392;SDS011;4736;52.508;13.422;2023-12-20T00:49:39;8.87;;;8.37;;
9392;SDS011;4736;52.508;13.422;2023-12-20T00:52:42;7.80;;;7.40;;
9392;SDS011;4736;52.508;13.422;2023-12-20T00:55:45;8.57;;;8.07;;
9392;SDS011;4736;52.508;13.422;2023-12-20T00:58:50;8.70;;;8.20;;
9392;SDS011;4736;52.508;13.422;2023-12-20T01:01:53;9.13;;;8.53;;
9392;SDS011;4736;52.508;13.422;2023-12-20T01:04:56;8.40;;;8.00;;
9392;SDS011;4736;52.508;13.422;2023-12-20T01:07:59;8.87;;;8.30;;
9392;SDS011;4736;52.508;13.422;2023-12-20T01:11:04;8.70;;;8.20;;
9392;SDS011;4736;52.508;13.422;2023-12-20T01:14:09;8.40;;;8.00;;
9392;SDS011;4736;52.508;13.422;2023-12-20T01:17:13;8.77;;;8.27;;
9392;SDS011;4736;52.508;13.422;2023-12-20T01:20:16;9.53;;;8.67;;
9392;SDS011;4736;52.508;13.422;2023-12-20T01:23:21;9.30;;;8.70;;
9392;SDS011;4736;52.508;13.422;2023-12-20T01:26:24;8.93;;;8.33;;
9392;SDS011;4736;52.508;13.422;2023-12-20T01:29:29;9.27;;;8.77;;
9392;SDS011;4736;52.508;13.422;2023-12-20T01:32:32;9.43;;;8.93;;
9392;SDS011;4736;52.508;13.422;2023-12-20T01:35:35;8.57;;;8.07;;
9392;SDS011;4736;52.508;13.422;2023-12-20T01:38:38;8.23;;;7.73;;
9392;SDS011;4736;52.508;13.422;2023-12-20T01:41:41;8.30;;;7.90;;
9392;SDS011;4736;52.508;13.422;2023-12-20T01:44:46;8.17;;;7.70;;
9392;SDS011;4736;52.508;13.422;2023-12-20T01:47:51;8.20;;;7.70;;
9392;SDS011;4736;52.508;13.422;2023-12-20T01:50:55;7.90;;;7.50;;
9392;SDS011;4736;52.508;13.422;2023-12-20T01:53:58;7.07;;;6.77;;
9392;SDS011;4736;52.508;13.422;2023-12-20T01:57:03;7.40;;;7.10;;
9392;SDS011;4736;52.508;13.422;2023-12-20T02:00:09;6.93;;;6.63;;
9392;SDS011;4736;52.508;13.422;2023-12-20T02:03:15;7.60;;;7.20;;
9392;SDS011;4736;52.508;13.422;2023-12-20T02:06:20;6.90;;;6.60;;
9392;SDS011;4736;52.508;13.422;2023-12-20T02:09:25;6.80;;;6.50;;
9392;SDS011;4736;52.508;13.422;2023-12-20T02:12:29;6.60;;;6.30;;
9392;SDS011;4736;52.508;13.422;2023-12-20T02:15:34;6.17;;;5.97;;
9392;SDS011;4736;52.508;13.422;2023-12-20T02:18:39;6.43;;;5.93;;
9392;SDS011;4736;52.508;13.422;2023-12-20T02:21:45;6.47;;;6.17;;
9392;SDS011;4736;52.508;13.422;2023-12-20T02:24:48;5.60;;;5.50;;
9392;SDS011;4736;52.508;13.422;2023-12-20T02:27:51;5.00;;;4.90;;
9392;SDS011;4736;52.508;13.422;2023-12-20T02:30:55;5.80;;;5.50;;
9392;SDS011;4736;52.508;13.422;2023-12-20T02:33:58;5.87;;;5.67;;
9392;SDS011;4736;52.508;13.422;2023-12-20T02:37:03;5.63;;;5.43;;
9392;SDS011;4736;52.508;13.422;2023-12-20T02:40:06;5.70;;;5.60;;
9392;SDS011;4736;52.508;13.422;2023-12-20T02:43:10;5.70;;;5.50;;
9392;SDS011;4736;52.508;13.422;2023-12-20T02:46:13;5.90;;;5.63;;
9392;SDS011;4736;52.508;13.422;2023-12-20T02:49:18;6.90;;;6.60;;
9392;SDS011;4736;52.508;13.422;2023-12-20T02:52:23;7.03;;;6.73;;
9392;SDS011;4736;52.508;13.422;2023-12-20T02:55:29;6.73;;;6.43;;
9392;SDS011;4736;52.508;13.422;2023-12-20T02:58:32;8.10;;;7.60;;
9392;SDS011;4736;52.508;13.422;2023-12-20T03:01:41;7.60;;;7.10;;
9392;SDS011;4736;52.508;13.422;2023-12-20T03:04:45;7.67;;;7.03;;
9392;SDS011;4736;52.508;13.422;2023-12-20T03:07:49;8.27;;;7.67;;
9392;SDS011;4736;52.508;13.422;2023-12-20T03:10:53;7.93;;;7.33;;
9392;SDS011;4736;52.508;13.422;2023-12-20T03:13:56;8.67;;;7.53;;
9392;SDS011;4736;52.508;13.422;2023-12-20T03:17:00;8.07;;;7.47;;
9392;SDS011;4736;52.508;13.422;2023-12-20T03:20:03;7.40;;;6.87;;
9392;SDS011;4736;52.508;13.422;2023-12-20T03:23:09;8.03;;;7.37;;
9392;SDS011;4736;52.508;13.422;2023-12-20T03:26:12;6.87;;;6.30;;
9392;SDS011;4736;52.508;13.422;2023-12-20T03:29:16;8.43;;;6.10;;
9392;SDS011;4736;52.508;13.422;2023-12-20T03:32:19;6.70;;;6.20;;
9392;SDS011;4736;52.508;13.422;2023-12-20T03:35:23;6.27;;;5.80;;
9392;SDS011;4736;52.508;13.422;2023-12-20T03:38:27;9.57;;;5.37;;
9392;SDS011;4736;52.508;13.422;2023-12-20T03:41:30;7.33;;;5.27;;
9392;SDS011;4736;52.508;13.422;2023-12-20T03:44:33;5.30;;;4.90;;
9392;SDS011;4736;52.508;13.422;2023-12-20T03:47:36;5.40;;;4.93;;
9392;SDS011;4736;52.508;13.422;2023-12-20T03:50:40;8.10;;;5.17;;
9392;SDS011;4736;52.508;13.422;2023-12-20T03:53:44;4.90;;;4.60;;
9392;SDS011;4736;52.508;13.422;2023-12-20T03:56:47;8.30;;;5.13;;
9392;SDS011;4736;52.508;13.422;2023-12-20T03:59:50;5.40;;;4.83;;
9392;SDS011;4736;52.508;13.422;2023-12-20T04:02:53;4.50;;;4.10;;
9392;SDS011;4736;52.508;13.422;2023-12-20T04:05:56;7.13;;;4.47;;
9392;SDS011;4736;52.508;13.422;2023-12-20T04:09:01;6.80;;;4.70;;
9392;SDS011;4736;52.508;13.422;2023-12-20T04:12:05;4.90;;;4.40;;
9392;SDS011;4736;52.508;13.422;2023-12-20T04:15:09;4.83;;;4.40;;
9392;SDS011;4736;52.508;13.422;2023-12-20T04:18:13;7.23;;;4.37;;
9392;SDS011;4736;52.508;13.422;2023-12-20T04:21:16;5.37;;;4.40;;
9392;SDS011;4736;52.508;13.422;2023-12-20T04:24:21;7.60;;;4.43;;
9392;SDS011;4736;52.508;13.422;2023-12-20T04:27:24;6.27;;;4.27;;
9392;SDS011;4736;52.508;13.422;2023-12-20T04:30:29;7.23;;;4.53;;
9392;SDS011;4736;52.508;13.422;2023-12-20T04:33:32;6.80;;;5.10;;
9392;SDS011;4736;52.508;13.422;2023-12-20T04:36:35;4.83;;;4.30;;
9392;SDS011;4736;52.508;13.422;2023-12-20T04:39:40;5.03;;;4.17;;
9392;SDS011;4736;52.508;13.422;2023-12-20T04:42:44;7.47;;;4.60;;
9392;SDS011;4736;52.508;13.422;2023-12-20T04:45:47;9.20;;;4.73;;
9392;SDS011;4736;52.508;13.422;2023-12-20T04:48:50;11.23;;;4.53;;
9392;SDS011;4736;52.508;13.422;2023-12-20T04:51:54;6.63;;;3.87;;
9392;SDS011;4736;52.508;13.422;2023-12-20T04:54:59;6.37;;;4.30;;
9392;SDS011;4736;52.508;13.422;2023-12-20T04:58:02;6.03;;;4.27;;
9392;SDS011;4736;52.508;13.422;2023-12-20T05:01:06;5.13;;;4.13;;
9392;SDS011;4736;52.508;13.422;2023-12-20T05:04:09;4.67;;;4.23;;
9392;SDS011;4736;52.508;13.422;2023-12-20T05:07:12;4.90;;;4.50;;
9392;SDS011;4736;52.508;13.422;2023-12-20T05:10:19;9.87;;;5.30;;
9392;SDS011;4736;52.508;13.422;2023-12-20T05:13:22;9.47;;;4.80;;
9392;SDS011;4736;52.508;13.422;2023-12-20T05:16:42;8.37;;;4.47;;
9392;SDS011;4736;52.508;13.422;2023-12-20T05:19:45;10.13;;;5.53;;
9392;SDS011;4736;52.508;13.422;2023-12-20T05:22:48;8.90;;;4.50;;
9392;SDS011;4736;52.508;13.422;2023-12-20T05:25:53;12.57;;;4.57;;
9392;SDS011;4736;52.508;13.422;2023-12-20T05:28:56;6.10;;;4.63;;
9392;SDS011;4736;52.508;13.422;2023-12-20T05:31:59;4.67;;;4.27;;
9392;SDS011;4736;52.508;13.422;2023-12-20T05:35:02;6.30;;;4.97;;
9392;SDS011;4736;52.508;13.422;2023-12-20T05:38:06;9.37;;;4.43;;
9392;SDS011;4736;52.508;13.422;2023-12-20T05:41:10;11.17;;;4.27;;
9392;SDS011;4736;52.508;13.422;2023-12-20T05:44:14;7.40;;;4.43;;
9392;SDS011;4736;52.508;13.422;2023-12-20T05:47:17;6.03;;;4.47;;
9392;SDS011;4736;52.508;13.422;2023-12-20T05:50:21;11.37;;;4.63;;
9392;SDS011;4736;52.508;13.422;2023-12-20T05:53:24;9.57;;;4.70;;
9392;SDS011;4736;52.508;13.422;2023-12-20T05:56:30;6.60;;;4.50;;
9392;SDS011;4736;52.508;13.422;2023-12-20T05:59:33;8.20;;;4.57;;
9392;SDS011;4736;52.508;13.422;2023-12-20T06:02:36;9.47;;;4.63;;
9392;SDS011;4736;52.508;13.422;2023-12-20T06:05:39;8.07;;;4.10;;
9392;SDS011;4736;52.508;13.422;2023-12-20T06:08:43;7.20;;;4.70;;
9392;SDS011;4736;52.508;13.422;2023-12-20T06:11:47;9.77;;;5.10;;
9392;SDS011;4736;52.508;13.422;2023-12-20T06:14:50;4.43;;;4.07;;
9392;SDS011;4736;52.508;13.422;2023-12-20T06:17:54;8.43;;;4.23;;
9392;SDS011;4736;52.508;13.422;2023-12-20T06:20:57;7.87;;;4.70;;
9392;SDS011;4736;52.508;13.422;2023-12-20T06:24:00;7.23;;;5.07;;
9392;SDS011;4736;52.508;13.422;2023-12-20T06:27:04;10.73;;;4.40;;
9392;SDS011;4736;52.508;13.422;2023-12-20T06:30:08;5.17;;;4.47;;
9392;SDS011;4736;52.508;13.422;2023-12-20T06:33:11;5.93;;;4.23;;
9392;SDS011;4736;52.508;13.422;2023-12-20T06:36:15;8.97;;;4.57;;
9392;SDS011;4736;52.508;13.422;2023-12-20T06:39:18;8.33;;;5.10;;
9392;SDS011;4736;52.508;13.422;2023-12-20T06:42:23;8.77;;;5.10;;
9392;SDS011;4736;52.508;13.422;2023-12-20T06:45:26;8.53;;;5.33;;
9392;SDS011;4736;52.508;13.422;2023-12-20T06:48:29;4.87;;;4.23;;
9392;SDS011;4736;52.508;13.422;2023-12-20T06:51:32;7.13;;;4.97;;
9392;SDS011;4736;52.508;13.422;2023-12-20T06:54:36;9.70;;;4.60;;
9392;SDS011;4736;52.508;13.422;2023-12-20T06:57:40;11.03;;;4.83;;
9392;SDS011;4736;52.508;13.422;2023-12-20T07:00:44;5.53;;;5.00;;
9392;SDS011;4736;52.508;13.422;2023-12-20T07:03:47;6.73;;;4.93;;
9392;SDS011;4736;52.508;13.422;2023-12-20T07:06:50;12.70;;;5.40;;
9392;SDS011;4736;52.508;13.422;2023-12-20T07:09:58;6.40;;;4.83;;
9392;SDS011;4736;52.508;13.422;2023-12-20T07:13:03;12.40;;;5.37;;
9392;SDS011;4736;52.508;13.422;2023-12-20T07:16:06;7.03;;;5.17;;
9392;SDS011;4736;52.508;13.422;2023-12-20T07:19:09;10.10;;;5.50;;
9392;SDS011;4736;52.508;13.422;2023-12-20T07:22:13;5.77;;;4.90;;
9392;SDS011;4736;52.508;13.422;2023-12-20T07:25:16;9.40;;;4.80;;
9392;SDS011;4736;52.508;13.422;2023-12-20T07:28:20;7.00;;;5.13;;
9392;SDS011;4736;52.508;13.422;2023-12-20T07:31:24;7.53;;;4.43;;
9392;SDS011;4736;52.508;13.422;2023-12-20T07:34:27;12.27;;;4.60;;
9392;SDS011;4736;52.508;13.422;2023-12-20T07:37:30;9.83;;;5.03;;
9392;SDS011;4736;52.508;13.422;2023-12-20T07:40:33;9.50;;;5.17;;
9392;SDS011;4736;52.508;13.422;2023-12-20T07:43:41;6.50;;;4.83;;
9392;SDS011;4736;52.508;13.422;2023-12-20T07:46:44;6.47;;;4.43;;
9392;SDS011;4736;52.508;13.422;2023-12-20T07:49:47;8.57;;;4.83;;
9392;SDS011;4736;52.508;13.422;2023-12-20T07:52:52;8.13;;;4.43;;
9392;SDS011;4736;52.508;13.422;2023-12-20T07:55:55;6.47;;;4.10;;
9392;SDS011;4736;52.508;13.422;2023-12-20T07:59:00;4.80;;;4.40;;
9392;SDS011;4736;52.508;13.422;2023-12-20T08:02:03;11.33;;;4.87;;
9392;SDS011;4736;52.508;13.422;2023-12-20T08:05:08;5.43;;;4.80;;
9392;SDS011;4736;52.508;13.422;2023-12-20T08:08:12;9.90;;;4.83;;
9392;SDS011;4736;52.508;13.422;2023-12-20T08:11:15;10.20;;;4.70;;
9392;SDS011;4736;52.508;13.422;2023-12-20T08:14:20;8.20;;;4.30;;
9392;SDS011;4736;52.508;13.422;2023-12-20T08:17:23;8.93;;;4.97;;
9392;SDS011;4736;52.508;13.422;2023-12-20T08:20:26;6.07;;;5.30;;
9392;SDS011;4736;52.508;13.422;2023-12-20T08:23:40;5.30;;;4.03;;
9392;SDS011;4736;52.508;13.422;2023-12-20T08:26:43;10.37;;;4.83;;
9392;SDS011;4736;52.508;13.422;2023-12-20T08:29:48;7.83;;;5.17;;
9392;SDS011;4736;52.508;13.422;2023-12-20T08:32:52;8.30;;;4.93;;
9392;SDS011;4736;52.508;13.422;2023-12-20T08:35:56;9.43;;;5.23;;
9392;SDS011;4736;52.508;13.422;2023-12-20T08:38:59;8.07;;;5.23;;
9392;SDS011;4736;52.508;13.422;2023-12-20T08:42:04;9.50;;;4.70;;
9392;SDS011;4736;52.508;13.422;2023-12-20T08:45:09;6.47;;;4.10;;
9392;SDS011;4736;52.508;13.422;2023-12-20T08:48:13;8.17;;;4.70;;
9392;SDS011;4736;52.508;13.422;2023-12-20T08:51:16;7.23;;;4.53;;
9392;SDS011;4736;52.508;13.422;2023-12-20T08:54:19;8.47;;;4.60;;
9392;SDS011;4736;52.508;13.422;2023-12-20T08:57:23;10.27;;;4.60;;
9392;SDS011;4736;52.508;13.422;2023-12-20T09:00:28;4.67;;;4.20;;
9392;SDS011;4736;52.508;13.422;2023-12-20T09:03:31;7.17;;;4.67;;
9392;SDS011;4736;52.508;13.422;2023-12-20T09:06:34;4.47;;;3.93;;
9392;SDS011;4736;52.508;13.422;2023-12-20T09:09:37;6.10;;;4.47;;
9392;SDS011;4736;52.508;13.422;2023-12-20T09:12:41;7.43;;;4.93;;
9392;SDS011;4736;52.508;13.422;2023-12-20T09:15:46;6.90;;;4.83;;
9392;SDS011;4736;52.508;13.422;2023-12-20T09:18:49;10.87;;;4.40;;
9392;SDS011;4736;52.508;13.422;2023-12-20T09:21:54;8.30;;;4.50;;
9392;SDS011;4736;52.508;13.422;2023-12-20T09:24:57;11.10;;;5.10;;
9392;SDS011;4736;52.508;13.422;2023-12-20T09:28:00;10.23;;;5.00;;
9392;SDS011;4736;52.508;13.422;2023-12-20T09:31:05;8.47;;;4.43;;
9392;SDS011;4736;52.508;13.422;2023-12-20T09:34:08;11.73;;;5.03;;
9392;SDS011;4736;52.508;13.422;2023-12-20T09:37:12;8.00;;;4.57;;
9392;SDS011;4736;52.508;13.422;2023-12-20T09:40:17;4.83;;;4.30;;
9392;SDS011;4736;52.508;13.422;2023-12-20T09:43:22;10.83;;;4.73;;
9392;SDS011;4736;52.508;13.422;2023-12-20T09:46:28;6.30;;;5.13;;
9392;SDS011;4736;52.508;13.422;2023-12-20T09:49:37;7.90;;;4.63;;
9392;SDS011;4736;52.508;13.422;2023-12-20T09:52:40;7.17;;;4.67;;
9392;SDS011;4736;52.508;13.422;2023-12-20T09:55:45;5.80;;;4.40;;
9392;SDS011;4736;52.508;13.422;2023-12-20T09:58:48;5.13;;;4.60;;
9392;SDS011;4736;52.508;13.422;2023-12-20T10:01:53;5.93;;;4.77;;
9392;SDS011;4736;52.508;13.422;2023-12-20T10:04:59;13.50;;;5.23;;
9392;SDS011;4736;52.508;13.422;2023-12-20T10:08:05;5.43;;;4.93;;
9392;SDS011;4736;52.508;13.422;2023-12-20T10:11:09;9.83;;;5.20;;
9392;SDS011;4736;52.508;13.422;2023-12-20T10:14:12;11.07;;;5.17;;
9392;SDS011;4736;52.508;13.422;2023-12-20T10:17:17;7.60;;;4.43;;
9392;SDS011;4736;52.508;13.422;2023-12-20T10:20:20;8.73;;;4.60;;
9392;SDS011;4736;52.508;13.422;2023-12-20T10:23:25;8.00;;;4.50;;
9392;SDS011;4736;52.508;13.422;2023-12-20T10:26:28;11.50;;;4.63;;
9392;SDS011;4736;52.508;13.422;2023-12-20T10:29:32;9.67;;;5.27;;
9392;SDS011;4736;52.508;13.422;2023-12-20T10:32:40;9.50;;;4.93;;
9392;SDS011;4736;52.508;13.422;2023-12-20T10:35:43;5.33;;;4.87;;
9392;SDS011;4736;52.508;13.422;2023-12-20T10:38:48;10.87;;;5.80;;
9392;SDS011;4736;52.508;13.422;2023-12-20T10:41:53;4.93;;;4.47;;
9392;SDS011;4736;52.508;13.422;2023-12-20T10:44:58;9.73;;;4.60;;
9392;SDS011;4736;52.508;13.422;2023-12-20T10:48:04;5.13;;;4.63;;
9392;SDS011;4736;52.508;13.422;2023-12-20T10:51:07;9.43;;;5.20;;
9392;SDS011;4736;52.508;13.422;2023-12-20T10:54:11;9.60;;;5.30;;
9392;SDS011;4736;52.508;13.422;2023-12-20T10:57:14;10.10;;;6.80;;
9392;SDS011;4736;52.508;13.422;2023-12-20T11:00:21;5.30;;;4.87;;
9392;SDS011;4736;52.508;13.422;2023-12-20T11:03:27;8.37;;;4.47;;
9392;SDS011;4736;52.508;13.422;2023-12-20T11:06:36;11.47;;;5.43;;
9392;SDS011;4736;52.508;13.422;2023-12-20T11:09:47;8.57;;;4.93;;
9392;SDS011;4736;52.508;13.422;2023-12-20T11:12:57;12.43;;;5.03;;
9392;SDS011;4736;52.508;13.422;2023-12-20T11:16:14;7.73;;;5.17;;
9392;SDS011;4736;52.508;13.422;2023-12-20T11:19:18;6.70;;;4.70;;
9392;SDS011;4736;52.508;13.422;2023-12-20T11:22:22;7.90;;;5.53;;
9392;SDS011;4736;52.508;13.422;2023-12-20T11:25:27;9.33;;;5.33;;
9392;SDS011;4736;52.508;13.422;2023-12-20T11:28:30;11.83;;;5.00;;
9392;SDS011;4736;52.508;13.422;2023-12-20T11:31:39;12.20;;;5.13;;
9392;SDS011;4736;52.508;13.422;2023-12-20T11:34:44;11.13;;;5.70;;
9392;SDS011;4736;52.508;13.422;2023-12-20T11:37:47;7.67;;;4.90;;
9392;SDS011;4736;52.508;13.422;2023-12-20T11:40:53;7.63;;;5.10;;
9392;SDS011;4736;52.508;13.422;2023-12-20T11:43:56;9.93;;;5.00;;
9392;SDS011;4736;52.508;13.422;2023-12-20T11:47:02;6.67;;;4.73;;
9392;SDS011;4736;52.508;13.422;2023-12-20T11:50:07;7.10;;;5.10;;
9392;SDS011;4736;52.508;13.422;2023-12-20T11:53:11;6.53;;;5.40;;
9392;SDS011;4736;52.508;13.422;2023-12-20T11:56:14;9.80;;;4.83;;
9392;SDS011;4736;52.508;13.422;2023-12-20T11:59:17;8.47;;;5.10;;
9392;SDS011;4736;52.508;13.422;2023-12-20T12:02:24;6.73;;;4.67;;
9392;SDS011;4736;52.508;13.422;2023-12-20T12:05:30;6.03;;;4.70;;
9392;SDS011;4736;52.508;13.422;2023-12-20T12:08:34;11.67;;;7.97;;
9392;SDS011;4736;52.508;13.422;2023-12-20T12:11:38;7.07;;;5.23;;
9392;SDS011;4736;52.508;13.422;2023-12-20T12:14:41;7.53;;;5.37;;
9392;SDS011;4736;52.508;13.422;2023-12-20T12:17:44;6.83;;;5.10;;
9392;SDS011;4736;52.508;13.422;2023-12-20T12:21:01;9.37;;;4.97;;
9392;SDS011;4736;52.508;13.422;2023-12-20T12:24:30;10.60;;;5.47;;
9392;SDS011;4736;52.508;13.422;2023-12-20T12:28:04;6.90;;;4.47;;
9392;SDS011;4736;52.508;13.422;2023-12-20T12:31:08;6.80;;;4.60;;
9392;SDS011;4736;52.508;13.422;2023-12-20T12:34:17;7.00;;;5.37;;
9392;SDS011;4736;52.508;13.422;2023-12-20T12:37:22;7.37;;;5.00;;
9392;SDS011;4736;52.508;13.422;2023-12-20T12:40:26;6.83;;;4.73;;
9392;SDS011;4736;52.508;13.422;2023-12-20T12:43:29;8.13;;;5.10;;
9392;SDS011;4736;52.508;13.422;2023-12-20T12:46:35;6.77;;;5.03;;
9392;SDS011;4736;52.508;13.422;2023-12-20T12:49:40;5.80;;;4.70;;
9392;SDS011;4736;52.508;13.422;2023-12-20T12:52:44;7.87;;;4.87;;
9392;SDS011;4736;52.508;13.422;2023-12-20T12:55:48;6.93;;;5.30;;
9392;SDS011;4736;52.508;13.422;2023-12-20T12:58:57;5.13;;;4.73;;
9392;SDS011;4736;52.508;13.422;2023-12-20T13:02:38;7.53;;;5.50;;
9392;SDS011;4736;52.508;13.422;2023-12-20T13:05:43;7.63;;;5.07;;
9392;SDS011;4736;52.508;13.422;2023-12-20T13:08:49;8.03;;;5.13;;
9392;SDS011;4736;52.508;13.422;2023-12-20T13:11:52;12.87;;;5.80;;
9392;SDS011;4736;52.508;13.422;2023-12-20T13:14:56;9.13;;;5.30;;
9392;SDS011;4736;52.508;13.422;2023-12-20T13:17:59;10.93;;;5.70;;
9392;SDS011;4736;52.508;13.422;2023-12-20T13:21:03;7.13;;;5.50;;
9392;SDS011;4736;52.508;13.422;2023-12-20T13:24:08;5.87;;;5.47;;
9392;SDS011;4736;52.508;13.422;2023-12-20T13:27:11;4.53;;;4.30;;
9392;SDS011;4736;52.508;13.422;2023-12-20T13:30:15;5.07;;;4.17;;
9392;SDS011;4736;52.508;13.422;2023-12-20T13:33:20;4.10;;;3.90;;
9392;SDS011;4736;52.508;13.422;2023-12-20T13:36:23;4.20;;;3.90;;
9392;SDS011;4736;52.508;13.422;2023-12-20T13:39:27;3.43;;;3.33;;
9392;SDS011;4736;52.508;13.422;2023-12-20T13:42:31;4.07;;;3.80;;
9392;SDS011;4736;52.508;13.422;2023-12-20T13:45:34;4.30;;;4.00;;
9392;SDS011;4736;52.508;13.422;2023-12-20T13:48:37;3.70;;;3.60;;
9392;SDS011;4736;52.508;13.422;2023-12-20T13:51:40;2.97;;;2.80;;
9392;SDS011;4736;52.508;13.422;2023-12-20T13:54:45;3.60;;;3.30;;
9392;SDS011;4736;52.508;13.422;2023-12-20T13:57:49;3.70;;;3.50;;
9392;SDS011;4736;52.508;13.422;2023-12-20T14:00:56;5.00;;;3.70;;
9392;SDS011;4736;52.508;13.422;2023-12-20T14:03:59;4.03;;;3.73;;
9392;SDS011;4736;52.508;13.422;2023-12-20T14:07:03;4.87;;;3.90;;
9392;SDS011;4736;52.508;13.422;2023-12-20T14:10:08;3.77;;;3.43;;
9392;SDS011;4736;52.508;13.422;2023-12-20T14:13:11;3.80;;;3.50;;
9392;SDS011;4736;52.508;13.422;2023-12-20T14:16:14;4.07;;;3.77;;
9392;SDS011;4736;52.508;13.422;2023-12-20T14:19:18;3.77;;;3.67;;
9392;SDS011;4736;52.508;13.422;2023-12-20T14:22:21;3.50;;;3.20;;
9392;SDS011;4736;52.508;13.422;2023-12-20T14:25:27;4.43;;;3.53;;
9392;SDS011;4736;52.508;13.422;2023-12-20T14:28:39;3.30;;;3.13;;
9392;SDS011;4736;52.508;13.422;2023-12-20T14:31:43;3.20;;;3.17;;
9392;SDS011;4736;52.508;13.422;2023-12-20T14:34:46;3.40;;;3.30;;
9392;SDS011;4736;52.508;13.422;2023-12-20T14:37:49;2.97;;;2.93;;
9392;SDS011;4736;52.508;13.422;2023-12-20T14:40:54;3.20;;;3.00;;
9392;SDS011;4736;52.508;13.422;2023-12-20T14:43:57;3.07;;;3.00;;
9392;SDS011;4736;52.508;13.422;2023-12-20T14:47:01;4.33;;;3.30;;
9392;SDS011;4736;52.508;13.422;2023-12-20T14:50:05;2.97;;;2.90;;
9392;SDS011;4736;52.508;13.422;2023-12-20T14:53:09;3.20;;;3.00;;
9392;SDS011;4736;52.508;13.422;2023-12-20T14:56:13;3.43;;;3.23;;
9392;SDS011;4736;52.508;13.422;2023-12-20T14:59:17;3.60;;;3.40;;
9392;SDS011;4736;52.508;13.422;2023-12-20T15:02:20;3.33;;;3.23;;
9392;SDS011;4736;52.508;13.422;2023-12-20T15:05:23;3.23;;;3.00;;
9392;SDS011;4736;52.508;13.422;2023-12-20T15:08:27;4.27;;;4.03;;
9392;SDS011;4736;52.508;13.422;2023-12-20T15:11:33;3.47;;;3.27;;
9392;SDS011;4736;52.508;13.422;2023-12-20T15:14:37;3.83;;;3.53;;
9392;SDS011;4736;52.508;13.422;2023-12-20T15:17:40;3.40;;;3.20;;
9392;SDS011;4736;52.508;13.422;2023-12-20T15:20:43;3.80;;;3.47;;
9392;SDS011;4736;52.508;13.422;2023-12-20T15:23:46;3.63;;;3.47;;
9392;SDS011;4736;52.508;13.422;2023-12-20T15:26:55;4.00;;;3.60;;
9392;SDS011;4736;52.508;13.422;2023-12-20T15:29:58;4.50;;;3.70;;
9392;SDS011;4736;52.508;13.422;2023-12-20T15:33:02;4.83;;;3.47;;
9392;SDS011;4736;52.508;13.422;2023-12-20T15:36:08;3.37;;;3.27;;
9392;SDS011;4736;52.508;13.422;2023-12-20T15:39:11;3.80;;;3.50;;
9392;SDS011;4736;52.508;13.422;2023-12-20T15:42:17;3.87;;;3.67;;
9392;SDS011;4736;52.508;13.422;2023-12-20T15:45:20;4.73;;;3.90;;
9392;SDS011;4736;52.508;13.422;2023-12-20T15:48:23;4.03;;;3.63;;
9392;SDS011;4736;52.508;13.422;2023-12-20T15:51:32;4.00;;;3.60;;
9392;SDS011;4736;52.508;13.422;2023-12-20T15:54:35;4.17;;;3.87;;
9392;SDS011;4736;52.508;13.422;2023-12-20T15:57:42;3.97;;;3.67;;
9392;SDS011;4736;52.508;13.422;2023-12-20T16:00:55;3.57;;;3.40;;
9392;SDS011;4736;52.508;13.422;2023-12-20T16:03:58;3.63;;;3.37;;
9392;SDS011;4736;52.508;13.422;2023-12-20T16:07:02;3.30;;;3.20;;
9392;SDS011;4736;52.508;13.422;2023-12-20T16:10:06;4.93;;;4.00;;
9392;SDS011;4736;52.508;13.422;2023-12-20T16:13:11;3.73;;;3.60;;
9392;SDS011;4736;52.508;13.422;2023-12-20T16:16:14;3.70;;;3.50;;
9392;SDS011;4736;52.508;13.422;2023-12-20T16:19:17;3.97;;;3.60;;
9392;SDS011;4736;52.508;13.422;2023-12-20T16:22:20;5.23;;;3.50;;
9392;SDS011;4736;52.508;13.422;2023-12-20T16:25:24;3.77;;;3.50;;
9392;SDS011;4736;52.508;13.422;2023-12-20T16:28:28;4.10;;;3.60;;
9392;SDS011;4736;52.508;13.422;2023-12-20T16:31:31;3.83;;;3.63;;
9392;SDS011;4736;52.508;13.422;2023-12-20T16:34:37;4.10;;;3.70;;
9392;SDS011;4736;52.508;13.422;2023-12-20T16:37:40;4.07;;;3.77;;
9392;SDS011;4736;52.508;13.422;2023-12-20T16:40:43;4.87;;;3.93;;
9392;SDS011;4736;52.508;13.422;2023-12-20T16:43:48;7.67;;;4.07;;
9392;SDS011;4736;52.508;13.422;2023-12-20T16:46:51;6.30;;;4.20;;
9392;SDS011;4736;52.508;13.422;2023-12-20T16:49:54;5.30;;;3.70;;
9392;SDS011;4736;52.508;13.422;2023-12-20T16:52:57;5.27;;;3.70;;
9392;SDS011;4736;52.508;13.422;2023-12-20T16:56:00;4.70;;;4.50;;
9392;SDS011;4736;52.508;13.422;2023-12-20T16:59:05;4.17;;;3.97;;
9392;SDS011;4736;52.508;13.422;2023-12-20T17:02:08;4.23;;;3.93;;
9392;SDS011;4736;52.508;13.422;2023-12-20T17:05:12;5.40;;;4.27;;
9392;SDS011;4736;52.508;13.422;2023-12-20T17:08:15;4.33;;;3.83;;
9392;SDS011;4736;52.508;13.422;2023-12-20T17:11:18;4.20;;;3.90;;
9392;SDS011;4736;52.508;13.422;2023-12-20T17:14:24;6.33;;;4.60;;
9392;SDS011;4736;52.508;13.422;2023-12-20T17:17:27;8.93;;;4.17;;
9392;SDS011;4736;52.508;13.422;2023-12-20T17:20:31;5.10;;;4.60;;
9392;SDS011;4736;52.508;13.422;2023-12-20T17:23:36;7.63;;;4.30;;
9392;SDS011;4736;52.508;13.422;2023-12-20T17:26:40;7.53;;;4.87;;
9392;SDS011;4736;52.508;13.422;2023-12-20T17:29:44;9.80;;;5.10;;
9392;SDS011;4736;52.508;13.422;2023-12-20T17:32:48;9.43;;;5.17;;
9392;SDS011;4736;52.508;13.422;2023-12-20T17:35:51;7.87;;;5.13;;
9392;SDS011;4736;52.508;13.422;2023-12-20T17:38:56;8.37;;;4.97;;
9392;SDS011;4736;52.508;13.422;2023-12-20T17:42:00;8.13;;;5.30;;
9392;SDS011;4736;52.508;13.422;2023-12-20T17:45:04;5.33;;;4.13;;
9392;SDS011;4736;52.508;13.422;2023-12-20T17:48:08;9.40;;;5.40;;
9392;SDS011;4736;52.508;13.422;2023-12-20T17:51:11;11.43;;;6.07;;
9392;SDS011;4736;52.508;13.422;2023-12-20T17:54:16;6.70;;;5.00;;
9392;SDS011;4736;52.508;13.422;2023-12-20T17:57:19;7.40;;;5.10;;
9392;SDS011;4736;52.508;13.422;2023-12-20T18:00:26;9.60;;;5.10;;
9392;SDS011;4736;52.508;13.422;2023-12-20T18:03:32;6.63;;;5.03;;
9392;SDS011;4736;52.508;13.422;2023-12-20T18:06:35;9.87;;;5.23;;
9392;SDS011;4736;52.508;13.422;2023-12-20T18:09:38;7.80;;;4.70;;
9392;SDS011;4736;52.508;13.422;2023-12-20T18:12:41;7.83;;;4.87;;
9392;SDS011;4736;52.508;13.422;2023-12-20T18:15:46;6.13;;;4.20;;
9392;SDS011;4736;52.508;13.422;2023-12-20T18:18:49;7.43;;;4.30;;
9392;SDS011;4736;52.508;13.422;2023-12-20T18:21:53;7.40;;;4.47;;
9392;SDS011;4736;52.508;13.422;2023-12-20T18:24:55;7.53;;;4.80;;
9392;SDS011;4736;52.508;13.422;2023-12-20T18:27:59;9.20;;;4.53;;
9392;SDS011;4736;52.508;13.422;2023-12-20T18:31:04;5.00;;;4.47;;
9392;SDS011;4736;52.508;13.422;2023-12-20T18:34:07;9.17;;;4.40;;
9392;SDS011;4736;52.508;13.422;2023-12-20T18:37:10;7.00;;;4.40;;
9392;SDS011;4736;52.508;13.422;2023-12-20T18:40:15;5.23;;;4.20;;
9392;SDS011;4736;52.508;13.422;2023-12-20T18:43:18;6.63;;;4.67;;
9392;SDS011;4736;52.508;13.422;2023-12-20T18:46:23;11.10;;;4.60;;